Time;durP1;ratioP1;P1;durP2;ratioP2;P2;SDS_P1;SDS_P2;PMS_P1;PMS_P2;Temp;Humidity;BMP_temperature;BMP_pressure;BME280_temperature;BME280_humidity;BME280_pressure;Samples;Min_cycle;Max_cycle;Signal;HPM_P1;HPM_P2
2021/09/24 00:00:11;;;;;;;;;25.75;22.50;;;;;15.56;64.54;101257.81;5056652;28;67305;-59
2021/09/24 00:02:36;;;;;;;;;24.25;22.50;;;;;15.55;64.45;101260.63;5057349;28;45301;-59
2021/09/24 00:05:02;;;;;;;;;27.00;26.50;;;;;15.52;64.25;101258.28;5057014;28;60718;-60
2021/09/24 00:07:27;;;;;;;;;25.75;23.50;;;;;15.50;64.35;101260.25;5039540;28;45304;-60
2021/09/24 00:09:52;;;;;;;;;22.00;20.25;;;;;15.46;64.57;101256.25;5056851;28;61243;-60
2021/09/24 00:12:18;;;;;;;;;21.50;19.75;;;;;15.43;64.48;101262.66;5056776;28;62176;-60
2021/09/24 00:14:43;;;;;;;;;22.00;19.25;;;;;15.39;64.59;101256.00;5056711;28;61038;-60
2021/09/24 00:17:08;;;;;;;;;23.75;21.25;;;;;15.38;64.64;101254.31;5056417;28;69585;-60
2021/09/24 00:19:34;;;;;;;;;24.75;22.75;;;;;15.36;64.62;101256.31;5056282;28;71215;-59
2021/09/24 00:21:59;;;;;;;;;25.00;21.25;;;;;15.33;64.71;101257.44;5056244;28;59144;-60
2021/09/24 00:24:24;;;;;;;;;24.75;23.00;;;;;15.33;64.39;101251.31;5056417;28;68951;-60
2021/09/24 00:26:50;;;;;;;;;27.50;24.00;;;;;15.30;64.78;101252.44;5057209;28;46042;-60
2021/09/24 00:29:15;;;;;;;;;27.25;25.75;;;;;15.26;64.51;101245.78;5056123;28;67385;-60
2021/09/24 00:31:41;;;;;;;;;28.25;22.00;;;;;15.25;64.70;101238.81;5056294;28;66667;-60
2021/09/24 00:34:06;;;;;;;;;24.25;24.25;;;;;15.24;64.41;101232.69;5056388;28;57287;-60
2021/09/24 00:36:31;;;;;;;;;28.25;23.00;;;;;15.20;64.22;101233.13;5056806;28;45331;-59
2021/09/24 00:38:57;;;;;;;;;28.00;25.25;;;;;15.17;63.92;101234.28;5056847;28;45513;-59
2021/09/24 00:41:22;;;;;;;;;30.25;26.00;;;;;15.14;63.91;101238.03;5056196;28;61252;-60
2021/09/24 00:43:47;;;;;;;;;28.50;27.50;;;;;15.11;63.98;101233.03;5056969;28;45313;-59
2021/09/24 00:46:13;;;;;;;;;30.00;26.00;;;;;15.09;64.03;101237.69;5056327;28;54408;-59
2021/09/24 00:48:38;;;;;;;;;26.75;23.50;;;;;15.06;64.29;101230.03;5055634;28;68283;-60
2021/09/24 00:51:04;;;;;;;;;32.25;25.75;;;;;15.06;63.82;101237.13;5056110;28;63673;-59
2021/09/24 00:53:30;;;;;;;;;36.50;28.75;;;;;15.02;64.17;101228.66;5038930;28;45571;-59
2021/09/24 00:55:56;;;;;;;;;31.50;28.00;;;;;14.99;64.49;101223.66;5056667;28;46240;-60
2021/09/24 00:58:22;;;;;;;;;32.25;29.00;;;;;14.96;64.38;101224.78;5038852;28;45453;-59
2021/09/24 01:00:47;;;;;;;;;31.25;28.00;;;;;14.92;64.18;101222.59;5055894;28;61859;-60
2021/09/24 01:03:12;;;;;;;;;31.25;27.75;;;;;14.88;64.78;101219.38;5055740;28;67036;-60
2021/09/24 01:05:38;;;;;;;;;34.75;29.00;;;;;14.87;64.75;101215.06;5056355;28;51229;-60
2021/09/24 01:08:03;;;;;;;;;33.00;29.25;;;;;14.84;64.52;101223.31;5055908;28;63236;-60
2021/09/24 01:10:29;;;;;;;;;31.50;26.75;;;;;14.81;64.34;101215.69;5021753;28;45435;-60
2021/09/24 01:12:54;;;;;;;;;28.50;28.50;;;;;14.79;64.48;101215.00;5056502;28;45459;-60
2021/09/24 01:15:20;;;;;;;;;42.00;32.75;;;;;14.78;64.58;101202.75;5056443;28;46347;-59
2021/09/24 01:17:45;;;;;;;;;30.00;27.25;;;;;14.75;64.86;101201.22;5056538;28;45332;-59
2021/09/24 01:20:12;;;;;;;;;36.00;29.25;;;;;14.76;65.16;101199.44;5038554;28;45367;-59
2021/09/24 01:22:37;;;;;;;;;32.25;29.50;;;;;14.76;66.19;101202.88;5056128;28;45462;-60
2021/09/24 01:25:04;;;;;;;;;31.75;25.75;;;;;14.78;66.87;101208.03;5056301;28;46703;-59
2021/09/24 01:27:30;;;;;;;;;23.75;22.00;;;;;14.79;66.85;101201.78;5038352;28;45815;-60
2021/09/24 01:29:56;;;;;;;;;23.50;19.50;;;;;14.82;67.41;101198.84;5056290;28;45233;-60
2021/09/24 01:32:22;;;;;;;;;19.50;17.00;;;;;14.84;67.72;101207.44;5056377;28;45225;-60
2021/09/24 01:34:47;;;;;;;;;21.00;18.00;;;;;14.86;68.09;101213.41;5038253;28;46491;-60
2021/09/24 01:37:12;;;;;;;;;21.25;17.75;;;;;14.89;68.42;101217.59;5056063;28;45309;-60
2021/09/24 01:39:38;;;;;;;;;21.75;18.75;;;;;14.92;68.14;101218.09;5055864;28;53978;-60
2021/09/24 01:42:03;;;;;;;;;20.50;17.50;;;;;14.92;68.41;101217.28;5055249;28;63287;-60
2021/09/24 01:44:29;;;;;;;;;22.75;17.75;;;;;14.92;68.85;101217.28;5055173;28;70996;-59
2021/09/24 01:46:55;;;;;;;;;22.50;17.75;;;;;14.92;68.71;101212.81;5055333;28;66125;-60
2021/09/24 01:49:20;;;;;;;;;22.25;19.75;;;;;14.92;68.70;101215.47;5056063;28;45391;-60
2021/09/24 01:51:45;;;;;;;;;19.25;17.25;;;;;14.93;68.61;101218.97;5055208;28;68601;-60
2021/09/24 01:54:11;;;;;;;;;24.25;21.00;;;;;14.94;68.85;101220.63;5021381;28;45570;-60
2021/09/24 01:56:37;;;;;;;;;20.25;18.25;;;;;14.92;69.12;101212.81;5021276;28;45385;-60
2021/09/24 01:59:03;;;;;;;;;18.25;17.25;;;;;14.89;69.33;101209.66;5056727;28;45380;-60
2021/09/24 02:01:28;;;;;;;;;24.00;17.25;;;;;14.86;69.33;101208.13;5041323;28;45391;-60
2021/09/24 02:03:54;;;;;;;;;22.25;19.75;;;;;14.82;69.39;101214.72;5059241;28;46118;-60
2021/09/24 02:06:20;;;;;;;;;24.25;19.50;;;;;14.80;69.12;101209.56;5059154;28;45340;-60
2021/09/24 02:08:45;;;;;;;;;21.50;20.00;;;;;14.78;69.85;101205.41;5059687;28;45408;-60
2021/09/24 02:11:11;;;;;;;;;21.25;20.25;;;;;14.77;69.75;101214.31;5059353;28;45657;-60
2021/09/24 02:13:40;;;;;;;;;20.75;18.25;;;;;14.77;70.00;101211.66;5058683;28;46544;-60
2021/09/24 02:16:06;;;;;;;;;21.00;16.75;;;;;14.76;70.06;101218.75;5059293;28;45779;-60
2021/09/24 02:18:31;;;;;;;;;15.50;13.75;;;;;14.77;69.96;101214.31;5059037;28;45324;-59
2021/09/24 02:20:56;;;;;;;;;19.75;17.25;;;;;14.78;70.04;101216.81;5058465;28;53753;-60
2021/09/24 02:23:22;;;;;;;;;15.50;14.00;;;;;14.81;70.16;101218.34;5058694;28;48773;-59
2021/09/24 02:25:47;;;;;;;;;13.25;11.25;;;;;14.83;69.99;101219.84;5058980;28;45346;-59
2021/09/24 02:28:12;;;;;;;;;17.50;16.00;;;;;14.87;70.22;101215.06;5058587;28;55178;-60
2021/09/24 02:30:38;;;;;;;;;21.25;19.50;;;;;14.92;69.99;101218.09;5058019;28;69399;-60
2021/09/24 02:33:03;;;;;;;;;21.25;19.00;;;;;14.95;69.80;101220.47;5058108;28;65349;-59
2021/09/24 02:35:28;;;;;;;;;21.75;19.25;;;;;15.02;69.53;101219.88;5058166;28;65304;-60
2021/09/24 02:37:54;;;;;;;;;23.00;20.25;;;;;15.03;69.62;101211.81;5057893;28;66991;-60
2021/09/24 02:40:19;;;;;;;;;24.00;17.25;;;;;15.03;69.34;101217.09;5057939;28;64843;-60
2021/09/24 02:42:45;;;;;;;;;16.25;15.00;;;;;15.01;69.58;101215.56;5057854;28;69727;-60
2021/09/24 02:45:11;;;;;;;;;14.75;14.75;;;;;15.01;69.76;101218.22;5057518;28;45785;-60
2021/09/24 02:47:36;;;;;;;;;15.75;15.75;;;;;15.01;69.90;101211.13;5058497;28;45379;-59
2021/09/24 02:50:02;;;;;;;;;22.75;14.00;;;;;15.03;69.89;101213.59;5058778;28;45503;-60
2021/09/24 02:52:27;;;;;;;;;17.50;15.00;;;;;15.05;69.74;101201.91;5058392;28;46138;-60
2021/09/24 02:54:53;;;;;;;;;16.25;15.50;;;;;15.08;69.84;101201.59;5057806;28;68202;-60
2021/09/24 02:57:18;;;;;;;;;15.50;13.75;;;;;15.12;69.68;101202.13;5057838;28;63534;-59
2021/09/24 02:59:43;;;;;;;;;20.25;12.00;;;;;15.16;69.76;101200.00;5058704;28;45642;-59
2021/09/24 03:02:09;;;;;;;;;21.00;17.75;;;;;15.18;70.06;101196.22;5057440;28;70915;-60
2021/09/24 03:04:34;;;;;;;;;19.75;16.50;;;;;15.21;70.36;101192.44;5058608;28;45277;-59
2021/09/24 03:06:59;;;;;;;;;19.00;14.75;;;;;15.24;69.73;101193.00;5058669;28;45312;-60
2021/09/24 03:09:25;;;;;;;;;19.75;15.00;;;;;15.26;69.85;101193.69;5057505;28;65231;-60
2021/09/24 03:11:50;;;;;;;;;18.25;14.25;;;;;15.30;70.10;101194.19;5057165;28;72985;-59
2021/09/24 03:14:16;;;;;;;;;22.25;13.50;;;;;15.31;70.04;101182.63;5058375;28;45283;-60
2021/09/24 03:16:42;;;;;;;;;16.00;13.00;;;;;15.34;70.28;101184.16;5057635;28;62028;-60
2021/09/24 03:19:08;;;;;;;;;17.75;14.75;;;;;15.37;70.46;101176.72;5058323;28;45333;-60
2021/09/24 03:21:33;;;;;;;;;15.50;12.50;;;;;15.40;70.46;101173.78;5039798;28;46240;-60
2021/09/24 03:23:59;;;;;;;;;16.50;14.25;;;;;15.43;70.24;101176.13;5039262;28;70600;-59
2021/09/24 03:26:24;;;;;;;;;20.50;15.50;;;;;15.45;70.19;101180.44;5057565;28;60826;-60
2021/09/24 03:28:49;;;;;;;;;16.50;14.00;;;;;15.45;70.18;101183.88;5039604;28;58746;-59
2021/09/24 03:31:15;;;;;;;;;13.25;9.50;;;;;15.48;70.15;101185.41;5039243;28;64541;-60
2021/09/24 03:33:40;;;;;;;;;18.25;14.75;;;;;15.51;70.11;101185.94;5039902;28;45354;-60
2021/09/24 03:36:06;;;;;;;;;15.25;14.25;;;;;15.52;70.15;101187.59;5057814;28;45280;-60
2021/09/24 03:38:31;;;;;;;;;16.25;13.25;;;;;15.54;70.14;101184.81;5057580;28;55474;-60
2021/09/24 03:40:57;;;;;;;;;15.00;12.75;;;;;15.56;70.00;101185.50;5057297;28;59722;-60
2021/09/24 03:43:22;;;;;;;;;12.75;12.75;;;;;15.59;70.33;101177.25;5038912;28;70396;-60
2021/09/24 03:45:47;;;;;;;;;18.00;14.75;;;;;15.60;70.04;101178.91;5057906;28;45344;-60
2021/09/24 03:48:13;;;;;;;;;14.25;12.00;;;;;15.58;70.23;101171.09;5039176;28;61524;-60
2021/09/24 03:50:38;;;;;;;;;14.00;10.75;;;;;15.60;70.21;101180.72;5056824;28;67528;-60
2021/09/24 03:53:04;;;;;;;;;18.25;13.75;;;;;15.61;70.40;101188.53;5057664;28;45410;-59
2021/09/24 03:55:29;;;;;;;;;14.00;12.50;;;;;15.61;70.46;101187.66;5057550;28;45362;-60
2021/09/24 03:57:54;;;;;;;;;18.00;13.25;;;;;15.63;70.55;101191.00;5056969;28;61126;-60
2021/09/24 04:00:20;;;;;;;;;13.25;12.25;;;;;15.64;70.14;101184.72;5056872;28;65525;-60
2021/09/24 04:02:45;;;;;;;;;15.75;12.75;;;;;15.68;70.39;101186.06;5056519;28;66296;-60
2021/09/24 04:05:10;;;;;;;;;13.00;12.00;;;;;15.68;70.32;101186.91;5056746;28;64141;-60
2021/09/24 04:07:36;;;;;;;;;17.50;14.50;;;;;15.70;70.27;101186.75;5057551;28;45463;-60
2021/09/24 04:10:01;;;;;;;;;14.50;13.75;;;;;15.73;70.62;101183.81;5039145;28;47074;-60
2021/09/24 04:12:27;;;;;;;;;17.50;12.25;;;;;15.73;70.29;101178.50;5057541;28;45432;-60
2021/09/24 04:14:52;;;;;;;;;17.00;12.25;;;;;15.75;70.07;101176.53;5056824;28;59670;-60
2021/09/24 04:17:17;;;;;;;;;13.75;12.75;;;;;15.75;70.35;101180.97;5056785;28;55358;-60
2021/09/24 04:19:43;;;;;;;;;12.50;11.75;;;;;15.73;70.51;101183.81;5056834;28;54516;-60
2021/09/24 04:22:08;;;;;;;;;13.50;11.00;;;;;15.74;70.66;101188.13;5056142;28;45340;-60
2021/09/24 04:24:33;;;;;;;;;19.50;13.00;;;;;15.75;70.56;101184.47;5038543;28;61908;-59
2021/09/24 04:26:59;;;;;;;;;17.25;16.25;;;;;15.75;70.57;101181.84;5056481;28;63619;-60
2021/09/24 04:29:24;;;;;;;;;13.25;11.50;;;;;15.75;70.33;101179.19;5056483;28;66368;-60
2021/09/24 04:31:50;;;;;;;;;14.50;12.00;;;;;15.76;70.45;101180.00;5056077;28;71376;-60
2021/09/24 04:34:15;;;;;;;;;16.00;12.25;;;;;15.78;70.12;101180.69;5056406;28;62848;-60
2021/09/24 04:36:40;;;;;;;;;15.25;13.75;;;;;15.79;70.46;101177.88;5057009;28;45384;-60
2021/09/24 04:39:06;;;;;;;;;16.75;15.25;;;;;15.81;69.94;101183.00;5056591;28;45308;-60
2021/09/24 04:41:31;;;;;;;;;15.00;12.50;;;;;15.79;70.52;101182.34;5056879;28;45247;-60
2021/09/24 04:43:56;;;;;;;;;19.25;15.50;;;;;15.77;70.30;101185.16;5056058;28;68156;-60
2021/09/24 04:46:22;;;;;;;;;23.50;14.50;;;;;15.75;70.27;101187.13;5056259;28;62933;-60
2021/09/24 04:48:47;;;;;;;;;15.25;13.25;;;;;15.74;70.48;101182.81;5055846;28;69798;-59
2021/09/24 04:51:13;;;;;;;;;20.25;15.00;;;;;15.73;70.78;101175.84;5056251;28;61247;-60
2021/09/24 04:53:38;;;;;;;;;17.00;13.75;;;;;15.73;70.76;101186.44;5056753;28;45902;-60
2021/09/24 04:56:04;;;;;;;;;15.75;13.75;;;;;15.71;70.70;101178.63;5056248;28;59822;-59
2021/09/24 04:58:29;;;;;;;;;18.50;14.00;;;;;15.72;70.89;101177.66;5056586;28;46928;-59
2021/09/24 05:00:54;;;;;;;;;20.00;14.00;;;;;15.72;71.25;101182.94;5038753;28;45494;-60
2021/09/24 05:03:20;;;;;;;;;22.75;16.00;;;;;15.74;70.88;101174.88;5056181;28;56086;-60
2021/09/24 05:05:45;;;;;;;;;15.75;14.25;;;;;15.72;71.01;101179.50;5055830;28;63618;-59
2021/09/24 05:08:11;;;;;;;;;18.75;15.25;;;;;15.72;71.18;101171.53;5055908;28;52341;-60
2021/09/24 05:10:37;;;;;;;;;20.25;16.25;;;;;15.71;71.00;101170.69;5056075;28;45427;-60
2021/09/24 05:13:02;;;;;;;;;22.00;18.50;;;;;15.70;71.41;101170.88;5056380;28;45347;-60
2021/09/24 05:15:28;;;;;;;;;24.00;22.25;;;;;15.71;71.78;101173.34;5055534;28;63945;-60
2021/09/24 05:17:53;;;;;;;;;19.75;16.75;;;;;15.73;71.76;101167.91;5056156;28;45382;-60
2021/09/24 05:20:19;;;;;;;;;16.75;16.00;;;;;15.74;71.36;101166.91;5055515;28;64416;-60
2021/09/24 05:22:44;;;;;;;;;17.00;14.00;;;;;15.75;71.64;101165.94;5037877;28;45753;-60
2021/09/24 05:25:10;;;;;;;;;18.25;15.00;;;;;15.76;71.36;101172.91;5056398;28;45303;-60
2021/09/24 05:27:36;;;;;;;;;18.25;14.75;;;;;15.76;71.48;101166.75;5055930;28;46227;-59
2021/09/24 05:30:01;;;;;;;;;23.00;19.75;;;;;15.77;71.47;101166.63;5056477;28;45344;-60
2021/09/24 05:32:26;;;;;;;;;21.00;18.00;;;;;15.77;71.60;101169.25;5055570;28;61467;-60
2021/09/24 05:34:52;;;;;;;;;22.75;19.25;;;;;15.76;71.66;101177.34;5057280;28;67807;-60
2021/09/24 05:37:17;;;;;;;;;24.25;20.00;;;;;15.75;71.71;101168.59;5041297;28;46451;-60
2021/09/24 05:39:43;;;;;;;;;20.75;17.50;;;;;15.76;71.52;101172.03;5058354;28;72671;-60
2021/09/24 05:42:08;;;;;;;;;23.75;21.00;;;;;15.76;71.88;101170.25;5059452;28;45260;-60
2021/09/24 05:44:33;;;;;;;;;21.50;18.75;;;;;15.78;71.76;101172.72;5059665;28;45240;-60
2021/09/24 05:46:59;;;;;;;;;16.50;14.00;;;;;15.78;72.06;101170.94;5059405;28;45352;-60
2021/09/24 05:49:29;;;;;;;;;20.25;17.25;;;;;15.79;71.83;101167.28;5059477;28;45359;-59
2021/09/24 05:51:54;;;;;;;;;22.50;17.50;;;;;15.82;71.41;101174.09;5041327;28;45485;-59
2021/09/24 05:54:20;;;;;;;;;27.75;23.50;;;;;15.83;72.04;101163.34;5059397;28;45402;-60
2021/09/24 05:56:45;;;;;;;;;19.25;17.75;;;;;15.86;71.62;101170.13;5059301;28;45906;-60
2021/09/24 05:59:10;;;;;;;;;22.00;17.25;;;;;15.89;71.75;101177.00;5058434;28;67498;-59
2021/09/24 06:01:36;;;;;;;;;27.25;21.25;;;;;15.91;71.88;101169.69;5058428;28;61742;-59
2021/09/24 06:04:01;;;;;;;;;19.50;18.00;;;;;15.89;71.80;101167.22;5058398;28;68867;-59
2021/09/24 06:06:27;;;;;;;;;19.00;17.25;;;;;15.87;71.63;101164.72;5059324;28;45852;-59
2021/09/24 06:08:52;;;;;;;;;25.75;20.00;;;;;15.87;71.54;101170.03;5059354;28;45436;-59
2021/09/24 06:11:18;;;;;;;;;19.00;17.25;;;;;15.88;71.74;101165.53;5059280;28;45720;-59
2021/09/24 06:13:43;;;;;;;;;21.25;19.25;;;;;15.86;71.83;101168.38;5058892;28;45317;-59
2021/09/24 06:16:09;;;;;;;;;19.00;15.50;;;;;15.87;72.19;101175.34;5058741;28;45287;-60
2021/09/24 06:18:34;;;;;;;;;26.75;20.25;;;;;15.89;72.06;101179.66;5058733;28;45355;-59
2021/09/24 06:21:02;;;;;;;;;27.00;20.25;;;;;15.89;72.26;101177.00;5059036;28;45622;-59
2021/09/24 06:23:27;;;;;;;;;25.50;18.25;;;;;15.92;72.12;101177.50;5058595;28;45328;-60
2021/09/24 06:25:52;;;;;;;;;24.25;20.25;;;;;15.93;72.30;101178.31;5057917;28;66360;-59
2021/09/24 06:28:18;;;;;;;;;22.75;18.75;;;;;15.95;71.78;101179.84;5058652;28;45297;-59
2021/09/24 06:30:43;;;;;;;;;22.75;20.50;;;;;15.96;71.75;101178.00;5058140;28;57654;-59
2021/09/24 06:33:09;;;;;;;;;22.75;19.25;;;;;15.96;71.80;101180.66;5057881;28;63946;-59
2021/09/24 06:35:34;;;;;;;;;16.75;15.75;;;;;15.96;71.79;101180.66;5058429;28;46337;-59
2021/09/24 06:37:59;;;;;;;;;4.75;4.25;;;;;15.96;72.39;101178.00;5057858;28;66782;-59
2021/09/24 06:40:25;;;;;;;;;21.75;20.25;;;;;15.98;72.25;101181.34;5057879;28;61842;-59
2021/09/24 06:42:51;;;;;;;;;19.75;16.25;;;;;15.99;72.14;101183.00;5058074;28;46797;-59
2021/09/24 06:45:16;;;;;;;;;25.00;19.75;;;;;16.02;72.25;101180.03;5039697;28;46423;-59
2021/09/24 06:47:42;;;;;;;;;23.50;20.00;;;;;16.04;71.90;101174.59;5058170;28;51224;-59
2021/09/24 06:50:08;;;;;;;;;21.25;15.75;;;;;16.06;71.73;101167.31;5040527;28;45403;-59
2021/09/24 06:52:33;;;;;;;;;18.50;15.00;;;;;16.06;72.06;101162.84;5057482;28;45510;-59
2021/09/24 06:54:59;;;;;;;;;17.25;14.25;;;;;16.07;72.20;101161.03;5058506;28;46443;-59
2021/09/24 06:57:25;;;;;;;;;21.00;20.00;;;;;16.09;72.02;101167.81;5058241;28;45410;-59
2021/09/24 06:59:50;;;;;;;;;24.75;19.75;;;;;16.10;72.12;101166.84;5058399;28;45371;-59
2021/09/24 07:02:15;;;;;;;;;22.00;17.75;;;;;16.14;72.39;101160.25;5057609;28;65610;-59
2021/09/24 07:04:41;;;;;;;;;20.75;15.75;;;;;16.21;72.19;101168.38;5057461;28;70826;-59
2021/09/24 07:07:06;;;;;;;;;17.25;14.50;;;;;16.24;72.26;101167.25;5057334;28;67574;-60
2021/09/24 07:09:32;;;;;;;;;17.00;15.50;;;;;16.27;72.11;101173.06;5058402;28;45383;-59
2021/09/24 07:11:57;;;;;;;;;16.25;16.25;;;;;16.31;72.01;101165.63;5073878;28;45586;-59
2021/09/24 07:14:22;;;;;;;;;19.50;15.00;;;;;16.35;72.17;101166.13;5057262;28;72199;-59
2021/09/24 07:16:48;;;;;;;;;18.25;17.25;;;;;16.39;72.27;101165.69;5057948;28;45358;-59
2021/09/24 07:19:13;;;;;;;;;15.75;14.25;;;;;16.43;71.68;101174.13;5058206;28;45375;-59
2021/09/24 07:21:39;;;;;;;;;23.75;17.75;;;;;16.47;71.65;101172.81;5057888;28;45490;-59
2021/09/24 07:24:04;;;;;;;;;17.75;13.50;;;;;16.51;71.62;101175.97;5058144;28;46138;-59
2021/09/24 07:26:30;;;;;;;;;21.00;15.00;;;;;16.57;71.39;101162.06;5058049;28;45315;-59
2021/09/24 07:28:55;;;;;;;;;20.75;15.75;;;;;16.61;71.57;101171.38;5058242;28;45384;-59
2021/09/24 07:31:21;;;;;;;;;14.50;13.25;;;;;16.64;71.79;101171.06;5057972;28;45470;-59
2021/09/24 07:33:46;;;;;;;;;20.75;16.00;;;;;16.68;71.47;101172.41;5039854;28;45356;-59
2021/09/24 07:36:12;;;;;;;;;17.75;15.50;;;;;16.73;71.34;101170.09;5057891;28;45333;-59
2021/09/24 07:38:37;;;;;;;;;18.00;17.25;;;;;16.79;71.23;101173.09;5057771;28;45462;-60
2021/09/24 07:41:03;;;;;;;;;25.00;16.25;;;;;16.87;70.85;101168.63;5057025;28;62333;-59
2021/09/24 07:43:28;;;;;;;;;19.50;14.50;;;;;17.00;70.86;101170.03;5057432;28;45611;-59
2021/09/24 07:45:56;;;;;;;;;17.00;14.50;;;;;17.17;70.52;101162.91;5057579;28;45438;-59
2021/09/24 07:48:21;;;;;;;;;17.50;15.00;;;;;17.38;70.11;101169.59;5058117;28;45295;-60
2021/09/24 07:50:47;;;;;;;;;22.00;16.50;;;;;17.59;69.03;101166.44;5057892;28;45493;-59
2021/09/24 07:53:12;;;;;;;;;18.25;15.75;;;;;17.80;68.69;101165.91;5056474;28;73509;-59
2021/09/24 07:55:37;;;;;;;;;19.50;15.25;;;;;18.01;68.18;101169.91;5056602;28;67665;-60
2021/09/24 07:58:03;;;;;;;;;22.75;18.00;;;;;18.24;67.25;101160.19;5056695;28;45382;-60
2021/09/24 08:00:29;;;;;;;;;13.75;13.75;;;;;18.44;67.11;101161.59;5056951;28;59077;-59
2021/09/24 08:02:55;;;;;;;;;20.00;17.00;;;;;18.69;66.35;101160.50;5057282;28;45429;-60
2021/09/24 08:05:21;;;;;;;;;21.00;16.75;;;;;18.91;65.74;101162.53;5057492;28;45379;-60
2021/09/24 08:07:46;;;;;;;;;19.50;17.25;;;;;19.12;64.65;101164.59;5057353;28;45335;-59
2021/09/24 08:10:12;;;;;;;;;16.75;15.25;;;;;19.31;64.57;101168.59;5057039;28;55547;-60
2021/09/24 08:12:37;;;;;;;;;16.50;15.50;;;;;19.52;63.98;101169.78;5039286;28;46530;-59
2021/09/24 08:15:03;;;;;;;;;17.00;16.50;;;;;19.72;62.98;101170.91;5038469;28;71545;-59
2021/09/24 08:17:29;;;;;;;;;16.50;15.00;;;;;19.95;62.33;101174.56;5057427;28;45249;-60
2021/09/24 08:19:54;;;;;;;;;16.00;14.50;;;;;20.13;61.58;101168.88;5057386;28;45499;-60
2021/09/24 08:22:20;;;;;;;;;20.25;15.00;;;;;20.30;60.71;101169.50;5056849;28;45280;-60
2021/09/24 08:24:45;;;;;;;;;18.50;17.75;;;;;20.47;60.66;101167.47;5056985;28;50747;-60
2021/09/24 08:27:11;;;;;;;;;17.75;14.75;;;;;20.64;59.75;101164.59;5056797;28;57661;-60
2021/09/24 08:29:36;;;;;;;;;14.25;14.25;;;;;20.82;59.66;101165.00;5057196;28;45369;-60
2021/09/24 08:32:02;;;;;;;;;16.25;16.25;;;;;20.97;59.31;101169.50;5056913;28;49042;-60
2021/09/24 08:34:27;;;;;;;;;20.00;16.25;;;;;21.06;57.87;101173.69;5056954;28;45459;-60
2021/09/24 08:36:53;;;;;;;;;17.25;16.25;;;;;21.13;58.13;101176.44;5056399;28;64684;-60
2021/09/24 08:39:18;;;;;;;;;20.00;16.75;;;;;21.16;57.64;101173.38;5056470;28;49286;-60
2021/09/24 08:41:43;;;;;;;;;16.75;15.75;;;;;21.30;57.44;101174.31;5056402;28;56817;-61
2021/09/24 08:44:09;;;;;;;;;12.75;11.50;;;;;21.44;57.87;101172.63;5056999;28;45410;-60
2021/09/24 08:46:34;;;;;;;;;17.50;16.00;;;;;21.62;56.89;101170.31;5056187;28;64796;-60
2021/09/24 08:49:04;;;;;;;;;12.00;11.00;;;;;21.76;56.43;101179.25;5056513;28;48676;-60
2021/09/24 08:51:30;;;;;;;;;14.75;14.25;;;;;21.88;55.97;101173.38;5056663;28;46871;-60
2021/09/24 08:53:55;;;;;;;;;14.00;12.00;;;;;22.00;55.33;101174.47;5056715;28;45273;-60
2021/09/24 08:56:21;;;;;;;;;13.00;11.25;;;;;22.13;54.87;101172.91;5056140;28;64061;-60
2021/09/24 08:58:46;;;;;;;;;16.00;15.00;;;;;22.18;53.90;101179.31;5056031;28;62816;-60
2021/09/24 09:01:11;;;;;;;;;13.00;12.00;;;;;22.12;54.22;101182.78;5055918;28;61910;-60
2021/09/24 09:03:45;;;;;;;;;14.25;12.50;;;;;22.04;53.81;101175.75;5056223;28;48527;-60
2021/09/24 09:06:12;;;;;;;;;13.00;11.75;;;;;21.94;53.35;101180.59;5056710;28;45366;-60
2021/09/24 09:08:38;;;;;;;;;11.50;10.75;;;;;21.85;54.36;101181.78;5055932;28;45394;-60
2021/09/24 09:11:06;;;;;;;;;10.25;10.00;;;;;21.71;54.37;101181.72;5056334;28;46014;-60
2021/09/24 09:13:34;;;;;;;;;8.00;8.00;;;;;21.61;54.32;101184.66;5056491;28;45324;-60
2021/09/24 09:16:04;;;;;;;;;9.25;8.25;;;;;21.56;54.42;101183.59;5056647;28;45244;-60
2021/09/24 09:18:31;;;;;;;;;11.00;9.00;;;;;21.49;54.08;101178.19;5056460;28;45415;-60
2021/09/24 09:20:57;;;;;;;;;11.00;10.25;;;;;21.46;53.54;101178.59;5056133;28;45420;-60
2021/09/24 09:23:23;;;;;;;;;7.00;7.00;;;;;21.39;52.93;101180.38;5056109;28;45545;-60
2021/09/24 09:25:49;;;;;;;;;8.50;7.75;;;;;21.32;53.26;101185.66;5056274;28;45431;-59
2021/09/24 09:28:36;;;;;;;;;10.25;7.00;;;;;21.22;53.97;101191.31;5056481;28;45362;-59
2021/09/24 09:31:14;;;;;;;;;12.75;10.00;;;;;21.12;53.99;101183.63;5054805;28;46055;-60
2021/09/24 09:33:39;;;;;;;;;11.00;10.00;;;;;21.03;54.64;101187.44;5038130;28;45477;-60
2021/09/24 09:36:04;;;;;;;;;9.25;7.75;;;;;20.99;55.08;101186.16;5055288;28;60532;-59
2021/09/24 09:38:32;;;;;;;;;10.25;9.00;;;;;20.93;54.11;101178.91;5055481;28;62224;-60
2021/09/24 09:40:58;;;;;;;;;11.50;9.75;;;;;20.86;54.26;101182.31;5055823;28;53393;-60
2021/09/24 09:43:28;;;;;;;;;10.00;8.50;;;;;20.82;54.90;101180.22;5055960;28;45442;-60
2021/09/24 09:45:54;;;;;;;;;10.75;8.50;;;;;20.76;54.53;101187.09;5071912;28;45377;-60
2021/09/24 09:48:19;;;;;;;;;10.50;9.75;;;;;20.72;54.59;101181.31;5021235;28;45705;-60
2021/09/24 09:50:45;;;;;;;;;11.00;10.25;;;;;20.68;54.59;101179.19;5055799;28;46029;-60
2021/09/24 09:53:12;;;;;;;;;12.50;9.75;;;;;20.67;54.10;101177.53;5055793;28;45312;-60
2021/09/24 09:55:47;;;;;;;;;13.75;11.00;;;;;20.59;54.62;101182.00;5055774;28;45271;-60
2021/09/24 09:58:12;;;;;;;;;16.25;12.50;;;;;20.55;54.61;101179.88;5055264;28;45377;-60
2021/09/24 10:00:57;;;;;;;;;12.75;12.00;;;;;20.57;54.60;101178.69;5055396;28;46226;-60
2021/09/24 10:03:30;;;;;;;;;16.00;13.00;;;;;20.68;54.56;101173.84;5055475;28;45423;-59
2021/09/24 10:05:55;;;;;;;;;17.00;13.00;;;;;20.80;54.13;101171.56;5055449;28;45328;-60
2021/09/24 10:08:28;;;;;;;;;12.75;12.50;;;;;20.92;53.99;101171.91;5054875;28;56923;-60
2021/09/24 10:10:59;;;;;;;;;14.50;13.00;;;;;20.99;53.79;101164.78;5037750;28;45472;-60
2021/09/24 10:13:30;;;;;;;;;18.00;14.25;;;;;21.09;53.21;101161.78;5055234;28;45253;-60
2021/09/24 10:15:56;;;;;;;;;12.50;11.50;;;;;21.23;53.95;101158.22;5055587;28;45335;-59
2021/09/24 10:18:21;;;;;;;;;18.50;13.25;;;;;21.41;53.96;101159.63;5055495;28;45308;-60
2021/09/24 10:20:47;;;;;;;;;14.50;11.75;;;;;21.63;52.71;101160.44;5057155;28;46813;-59
2021/09/24 10:23:12;;;;;;;;;15.00;13.50;;;;;21.84;52.73;101162.25;5058164;28;57774;-60
2021/09/24 10:25:37;;;;;;;;;13.50;13.25;;;;;22.07;52.98;101161.97;5059022;28;45332;-60
2021/09/24 10:28:04;;;;;;;;;13.50;12.00;;;;;22.28;51.79;101156.72;5040101;28;70523;-60
2021/09/24 10:30:29;;;;;;;;;15.25;13.75;;;;;22.44;51.26;101161.75;5040789;28;45564;-60
2021/09/24 10:33:05;;;;;;;;;16.25;13.50;;;;;22.60;51.01;101160.59;5023242;28;70180;-61
2021/09/24 10:35:53;;;;;;;;;16.00;14.00;;;;;22.69;51.10;101158.53;5040879;28;45198;-60
2021/09/24 10:38:23;;;;;;;;;14.75;13.25;;;;;22.73;50.60;101156.31;5040877;28;45462;-60
2021/09/24 10:40:53;;;;;;;;;15.00;12.00;;;;;22.87;50.52;101157.97;5058481;28;45376;-59
2021/09/24 10:43:19;;;;;;;;;16.50;13.50;;;;;23.06;49.55;101156.34;5040457;28;45321;-60
2021/09/24 10:45:44;;;;;;;;;17.75;16.50;;;;;23.32;48.97;101151.25;5058812;28;45427;-60
2021/09/24 10:48:20;;;;;;;;;18.00;15.25;;;;;23.60;48.46;101148.34;5058648;28;45677;-60
2021/09/24 10:50:47;;;;;;;;;19.50;13.25;;;;;23.88;48.14;101157.16;5040488;28;47243;-61
2021/09/24 10:53:17;;;;;;;;;17.25;14.75;;;;;24.14;47.50;101150.94;5058759;28;45921;-61
2021/09/24 10:55:49;;;;;;;;;16.50;14.25;;;;;24.39;47.63;101148.34;5058831;28;45382;-61
2021/09/24 10:58:26;;;;;;;;;14.00;13.00;;;;;24.63;46.46;101140.59;5058441;28;45253;-61
2021/09/24 11:00:52;;;;;;;;;17.50;15.25;;;;;24.76;46.03;101139.72;5058255;28;45411;-60
2021/09/24 11:03:19;;;;;;;;;17.75;16.25;;;;;24.83;45.09;101132.44;5058198;28;45383;-61